This is the latest recevied weather packets stored in our database for station/object KI4MRC. If no packets are shown the sender has not sent any weather packets the latest 1 day(s).
| Time | Temp. | Humidity | Pressure | Rain* | Wind** | Luminosity | Snow |
|---|---|---|---|---|---|---|---|
| 1778072884 | 27.22° C | 79% | 1016.7 hPa | 0 mm | - | 263 W/m² | - |
| 1778071976 | 26.11° C | 85% | 1016.6 hPa | 0 mm | - | 260 W/m² | - |
| 1778070464 | 24.44° C | 95% | 1016.3 hPa | 0 mm | - | 84 W/m² | - |
| 1778069253 | 23.33° C | 99% | 1016.5 hPa | 0 mm | - | 80 W/m² | - |
| 1778068951 | 23.33° C | 99% | 1016.5 hPa | 0 mm | - | 83 W/m² | - |
| 1778068044 | 22.78° C | 99% | 1016.3 hPa | 0 mm | - | 74 W/m² | - |
| 1778067440 | 22.22° C | 99% | 1016.4 hPa | 0 mm | - | 61 W/m² | - |
| 1778067137 | 21.67° C | 99% | 1016.3 hPa | 0 mm | - | 54 W/m² | - |
| 1778066833 | 21.67° C | 99% | 1016 hPa | 0 mm | - | 51 W/m² | - |
| 1778066531 | 21.67° C | 99% | 1016.1 hPa | 0 mm | - | 50 W/m² | - |
| 1778066228 | 21.67° C | 99% | 1016 hPa | 0 mm | - | 48 W/m² | - |
| 1778065926 | 21.67° C | 99% | 1015.8 hPa | 0 mm | - | 41 W/m² | - |
| 1778065623 | 21.11° C | 98% | 1015.8 hPa | 0 mm | - | 33 W/m² | - |
| 1778065017 | 21.11° C | 98% | 1015.6 hPa | 0 mm | - | 20 W/m² | - |
| 1778064412 | 21.11° C | 98% | 1015.8 hPa | 0 mm | - | 8 W/m² | - |
| 1778063806 | 21.11° C | 98% | 1015.5 hPa | 0 mm | - | 2 W/m² | - |
| 1778063503 | 21.11° C | 98% | 1015.6 hPa | 0 mm | - | 1 W/m² | - |
| 1778063201 | 21.11° C | 98% | 1015.6 hPa | 0 mm | - | 0 W/m² | - |
| 1778062595 | 21.11° C | 98% | 1015.5 hPa | 0 mm | - | 0 W/m² | - |
| 1778061688 | 21.11° C | 98% | 1015.5 hPa | 0 mm | - | 0 W/m² | - |
| 1778060780 | 21.11° C | 98% | 1015.2 hPa | 0 mm | - | 0 W/m² | - |
| 1778060176 | 21.11° C | 97% | 1015.4 hPa | 0 mm | - | 0 W/m² | - |
| 1778059873 | 21.11° C | 97% | 1015.2 hPa | 0 mm | - | 0 W/m² | - |
| 1778059571 | 21.67° C | 97% | 1015.1 hPa | 0 mm | - | 0 W/m² | - |
| 1778058966 | 21.11° C | 97% | 1015.3 hPa | 0 mm | - | 0 W/m² | - |
* Rain latest hour (hover to see other rain measurements)
** Current wind speed in m/s (hover to see current wind gust speed)